Latest Weather Observations for Sydney Airport

IDN60901

Issued at 9:21 pm EST Friday 6 May 2016 (issued every 10 minutes, with the page automatically refreshed every 10 minutes)

About weather observations | Map of Sydney area stations | Latest observations for Sydney area | Other Formats
Station Details ID: 066037 Name: SYDNEY AIRPORT AMO Lat: -33.95 Lon: 151.17 Height: 6.0 m
Data from the previous 72 hours. | See also: Recent months at Sydney Airport
Date/Time
EST
Tmp

°C
App
Tmp
°C
Dew
Point
°C
Rel
Hum
%
Delta-T

°C
Wind Press
QNH
hPa
Press
MSL
hPa
Rain
since
9 am
mm
Dir
 
Spd
km/h
Gust
km/h
Spd
kts
Gust
kts
06/09:00pm 17.7 18.7 13.2 75 2.5 CALM 0 0 0 0 1019.5 1019.5 0.0
06/08:30pm 18.6 19.7 13.5 72 2.9 CALM 0 0 0 0 1019.4 1019.4 0.0
06/08:00pm 18.9 19.9 13.2 69 3.2 CALM 0 0 0 0 1019.2 1019.2 0.0
06/07:30pm 19.2 19.1 13.4 69 3.3 ENE 6 7 3 4 1018.9 1018.9 0.0
06/07:00pm 19.3 19.3 13.5 69 3.3 ENE 6 7 3 4 1018.8 1018.8 0.0
06/06:30pm 19.8 19.1 13.3 66 3.7 NE 9 11 5 6 1018.6 1018.6 0.0
06/06:00pm 20.0 18.9 13.1 64 3.9 NE 11 15 6 8 1018.2 1018.2 0.0
06/05:30pm 19.8 18.7 13.1 65 3.8 NE 11 15 6 8 1018.0 1018.0 0.0
06/05:00pm 20.5 18.4 12.5 60 4.5 E 15 17 8 9 1017.8 1017.8 0.0
06/04:30pm 21.5 19.0 12.3 55 5.2 E 17 19 9 10 1017.5 1017.5 0.0
06/04:00pm 22.2 18.9 9.6 44 6.8 E 17 19 9 10 1017.4 1017.4 0.0
06/03:30pm 22.6 19.6 9.4 43 7.1 E 15 19 8 10 1017.2 1017.2 0.0
06/03:00pm 22.8 19.6 8.4 39 7.6 ESE 15 19 8 10 1017.1 1017.1 0.0
06/02:30pm 23.3 19.3 8.4 38 7.9 SE 19 22 10 12 1017.0 1017.0 0.0
06/02:00pm 23.5 19.0 6.8 34 8.6 SE 20 26 11 14 1016.9 1016.9 0.0
06/01:30pm 23.6 19.6 8.3 37 8.1 SE 19 24 10 13 1017.1 1017.1 0.0
06/01:00pm 24.3 20.6 8.1 35 8.6 SE 17 19 9 10 1017.3 1017.3 0.0
06/12:30pm 23.7 21.9 9.5 40 7.7 S 9 13 5 7 1017.5 1017.5 0.0
06/12:00pm 23.6 21.6 8.6 38 8.0 WSW 9 13 5 7 1018.0 1018.0 0.0
06/11:30am 23.2 20.0 8.5 39 7.8 WSW 15 24 8 13 1018.3 1018.3 0.0
06/11:00am 22.6 19.2 9.1 42 7.2 WSW 17 22 9 12 1018.8 1018.8 0.0
06/10:30am 22.9 19.4 8.6 40 7.6 W 17 22 9 12 1019.1 1019.1 0.0
06/10:00am 21.6 18.2 9.2 45 6.6 WNW 17 20 9 11 1019.3 1019.3 0.0
06/09:30am 19.8 17.0 10.1 53 5.2 WNW 15 22 8 12 1019.4 1019.4 0.0
06/09:00am 18.3 15.2 10.2 59 4.3 NW 17 20 9 11 1019.5 1019.5 0.0
06/08:30am 17.5 14.3 10.1 62 3.9 WNW 17 22 9 12 1019.6 1019.6 0.0
06/08:00am 15.5 12.6 9.5 67 3.1 NW 15 19 8 10 1019.4 1019.4 0.0
06/07:30am 14.8 12.2 9.3 69 2.8 NW 13 19 7 10 1018.9 1018.9 0.0
06/07:00am 14.5 12.5 10.1 75 2.3 NNW 11 13 6 7 1018.4 1018.4 0.0
06/06:30am 14.2 11.8 10.2 77 2.1 NW 13 19 7 10 1018.0 1018.0 0.0
06/06:00am 13.6 11.3 10.3 80 1.7 WNW 13 15 7 8 1017.7 1017.7 0.0
06/05:30am 14.0 11.7 10.3 78 1.9 WNW 13 17 7 9 1017.5 1017.5 0.0
06/05:00am 14.2 11.7 11.0 81 1.7 NW 15 17 8 9 1017.4 1017.4 0.0
06/04:30am 14.5 11.7 11.5 82 1.6 NW 17 19 9 10 1017.4 1017.4 0.0
06/04:00am 13.9 11.9 11.5 85 1.3 NW 13 17 7 9 1017.1 1017.1 0.0
06/03:30am 14.1 12.2 11.9 86 1.2 NW 13 17 7 9 1017.1 1017.1 0.0
06/03:00am 14.1 12.3 12.1 88 1.1 NW 13 17 7 9 1017.1 1017.1 0.0
06/02:30am 14.6 12.9 12.4 87 1.2 NNW 13 15 7 8 1017.2 1017.2 0.0
06/02:00am 14.7 12.7 12.7 88 1.1 NNW 15 17 8 9 1017.2 1017.2 0.0
06/01:30am 14.7 13.1 12.9 89 1.0 NW 13 15 7 8 1017.1 1017.1 0.0
06/01:00am 15.5 14.0 13.2 86 1.3 N 13 17 7 9 1017.2 1017.2 0.0
06/12:30am 16.0 15.4 13.5 85 1.4 NNW 9 11 5 6 1017.3 1017.3 0.0
06/12:00am 16.6 15.7 13.8 83 1.6 NW 11 13 6 7 1017.6 1017.6 0.0
 
Date/Time
EST
Tmp

°C
App
Tmp
°C
Dew
Point
°C
Rel
Hum
%
Delta-T

°C
Wind Press
QNH
hPa
Press
MSL
hPa
Rain
since
9 am
mm
Dir
 
Spd
km/h
Gust
km/h
Spd
kts
Gust
kts
05/11:30pm 17.1 16.4 14.3 83 1.6 NW 11 13 6 7 1017.6 1017.6 0.0
05/11:00pm 17.4 17.2 14.8 85 1.5 NW 9 13 5 7 1017.6 1017.6 0.0
05/10:30pm 18.2 18.1 14.9 81 1.9 NW 9 13 5 7 1017.7 1017.7 0.0
05/10:00pm 18.1 17.6 15.0 82 1.8 WNW 11 15 6 8 1017.9 1017.9 0.0
05/09:30pm 18.5 18.5 15.3 81 1.9 WSW 9 13 5 7 1017.9 1017.9 0.0
05/09:00pm 18.1 19.3 15.0 82 1.8 NNE 2 9 1 5 1017.9 1017.9 0.0
05/08:30pm 19.7 21.2 15.6 77 2.4 NNE 2 6 1 3 1017.9 1017.9 0.0
05/08:00pm 19.0 18.6 15.2 78 2.2 NE 11 13 6 7 1017.8 1017.8 0.0
05/07:30pm 20.1 19.2 14.8 71 3.1 NE 13 15 7 8 1017.7 1017.7 0.0
05/07:00pm 20.1 18.4 14.6 70 3.2 NNE 17 20 9 11 1017.6 1017.6 0.0
05/06:30pm 19.5 18.4 14.3 72 3.0 NNE 13 15 7 8 1017.4 1017.4 0.0
05/06:00pm 19.4 17.5 14.2 72 3.0 NNE 17 22 9 12 1017.2 1017.2 0.0
05/05:30pm 20.0 18.0 13.9 68 3.5 NE 17 20 9 11 1016.9 1016.9 0.0
05/05:00pm 20.5 17.7 13.1 62 4.2 NE 20 28 11 15 1016.7 1016.7 0.0
05/04:30pm 20.4 16.6 12.4 60 4.5 NE 24 28 13 15 1016.7 1016.7 0.0
05/04:00pm 21.1 16.7 11.8 55 5.2 NE 26 32 14 17 1016.8 1016.8 0.0
05/03:30pm 21.7 17.1 11.0 50 5.9 NE 26 30 14 16 1016.7 1016.7 0.0
05/03:00pm 22.0 17.2 10.2 47 6.4 NE 26 32 14 17 1016.7 1016.7 0.0
05/02:30pm 23.2 19.5 9.5 41 7.4 ENE 19 26 10 14 1016.6 1016.6 0.0
05/02:00pm 23.9 21.3 9.5 40 7.8 ESE 13 19 7 10 1016.7 1016.7 0.0
05/01:30pm 23.3 21.4 8.9 40 7.7 N 9 17 5 9 1017.0 1017.0 0.0
05/01:00pm 23.5 20.7 8.4 38 8.0 NNW 13 20 7 11 1017.3 1017.3 0.0
05/12:30pm 22.4 20.3 8.4 40 7.4 N 9 15 5 8 1017.8 1017.8 0.0
05/12:00pm 21.8 19.3 8.0 41 7.2 NW 11 17 6 9 1018.4 1018.4 0.0
05/11:30am 22.6 20.2 7.1 36 8.0 WNW 9 17 5 9 1019.0 1019.0 0.0
05/11:00am 21.1 17.7 5.8 37 7.6 WNW 13 17 7 9 1019.6 1019.6 0.0
05/10:30am 21.4 17.5 5.2 34 8.0 WNW 15 20 8 11 1020.1 1020.1 0.0
05/10:00am 20.3 16.9 6.0 39 7.1 WNW 13 20 7 11 1020.4 1020.4 0.0
05/09:30am 19.6 16.2 5.8 40 6.8 WNW 13 19 7 10 1020.6 1020.6 0.0
05/09:00am 18.1 14.9 5.2 42 6.2 NW 11 15 6 8 1020.6 1020.6 0.0
05/08:30am 17.0 13.2 5.8 47 5.4 NW 15 20 8 11 1020.6 1020.6 0.0
05/08:00am 16.8 13.5 6.4 50 5.1 NW 13 19 7 10 1020.5 1020.5 0.0
05/07:30am 15.2 12.0 6.8 57 4.1 NNW 13 19 7 10 1020.4 1020.4 0.0
05/07:00am 14.8 11.2 6.8 58 3.9 NW 15 19 8 10 1019.8 1019.8 0.0
05/06:30am 14.1 10.6 7.1 62 3.4 NW 15 17 8 9 1019.5 1019.5 0.0
05/06:00am 14.1 10.5 6.9 62 3.5 NW 15 17 8 9 1019.2 1019.2 0.0
05/05:30am 14.3 11.4 8.1 66 3.1 NNW 13 13 7 7 1019.1 1019.1 0.0
05/05:00am 14.3 11.6 9.0 70 2.7 NNW 13 13 7 7 1018.8 1018.8 0.0
05/04:30am 14.5 12.3 9.2 70 2.7 W 11 13 6 7 1018.6 1018.6 0.0
05/04:00am 13.6 11.6 10.1 79 1.8 W 11 15 6 8 1018.4 1018.4 0.0
05/03:30am 13.7 12.3 10.8 83 1.5 NW 9 13 5 7 1018.2 1018.2 0.0
05/03:00am 14.2 12.0 12.0 87 1.2 NW 15 19 8 10 1018.3 1018.3 0.0
05/02:30am 14.7 13.1 12.7 88 1.1 NW 13 15 7 8 1018.3 1018.3 0.0
05/02:00am 15.0 13.6 13.4 90 0.9 NNW 13 15 7 8 1018.3 1018.3 0.0
05/01:30am 15.4 14.8 13.4 88 1.1 N 9 13 5 7 1018.4 1018.4 0.0
05/01:00am 15.8 15.3 13.7 87 1.2 NW 9 11 5 6 1018.4 1018.4 0.0
05/12:30am 16.5 15.6 13.8 84 1.5 NW 11 11 6 6 1018.6 1018.6 0.0
05/12:00am 16.4 16.4 14.1 86 1.3 NNW 7 9 4 5 1018.6 1018.6 0.0
 
Date/Time
EST
Tmp

°C
App
Tmp
°C
Dew
Point
°C
Rel
Hum
%
Delta-T

°C
Wind Press
QNH
hPa
Press
MSL
hPa
Rain
since
9 am
mm
Dir
 
Spd
km/h
Gust
km/h
Spd
kts
Gust
kts
04/11:30pm 16.8 16.1 14.2 85 1.5 NW 11 13 6 7 1018.6 1018.6 0.0
04/11:00pm 17.5 16.9 14.5 82 1.7 WNW 11 19 6 10 1018.6 1018.6 0.0
04/10:30pm 17.6 16.6 14.6 82 1.7 W 13 19 7 10 1018.6 1018.6 0.0
04/10:00pm 18.0 17.1 14.9 82 1.8 WNW 13 17 7 9 1018.7 1018.7 0.0
04/09:30pm 18.2 18.0 15.6 85 1.5 SW 11 13 6 7 1018.6 1018.6 0.0
04/09:00pm 18.9 18.7 16.6 86 1.4 S 13 13 7 7 1018.4 1018.4 0.0
04/08:30pm 19.0 18.9 16.1 83 1.7 SSE 11 13 6 7 1018.2 1018.2 0.0
04/08:00pm 18.8 18.7 15.9 83 1.7 S 11 13 6 7 1017.8 1017.8 0.0
04/07:30pm 19.1 19.0 15.9 82 1.9 S 11 15 6 8 1017.5 1017.5 0.0
04/07:00pm 19.1 18.9 15.7 80 2.0 S 11 17 6 9 1017.2 1017.2 0.0
04/06:30pm 19.3 18.1 15.0 76 2.5 S 15 17 8 9 1016.8 1016.8 0.0
04/06:00pm 19.4 17.5 15.3 77 2.4 S 19 24 10 13 1016.2 1016.2 0.0
04/05:30pm 19.6 18.0 15.0 75 2.7 SSE 17 20 9 11 1015.7 1015.7 0.0
04/05:00pm 20.0 17.9 13.5 66 3.7 SSE 17 20 9 11 1015.3 1015.3 0.0
04/04:30pm 21.0 17.8 11.2 53 5.4 SSE 19 24 10 13 1015.1 1015.1 0.0
04/04:00pm 21.6 18.1 10.2 48 6.2 SE 19 24 10 13 1014.6 1014.6 0.0
04/03:30pm 22.7 18.6 8.0 39 7.7 E 19 22 10 12 1014.2 1014.2 0.0
04/03:00pm 23.3 21.4 15.3 60 4.8 E 19 26 10 14 1014.0 1014.0 0.0
04/02:30pm 23.0 20.1 9.5 42 7.3 ESE 15 17 8 9 1013.8 1013.8 0.0
04/02:00pm 23.7 20.9 8.5 38 8.1 SE 13 19 7 10 1013.7 1013.7 0.0
04/01:30pm 25.3 22.7 6.1 29 9.9 S 9 15 5 8 1013.9 1013.9 0.0
04/01:00pm 23.6 21.8 7.3 35 8.5 ENE 6 9 3 5 1014.1 1014.1 0.0
04/12:30pm 22.3 20.7 8.0 40 7.5 SSE 6 9 3 5 1014.4 1014.4 0.0
04/12:00pm 21.6 19.3 9.0 44 6.7 S 11 13 6 7 1014.7 1014.7 0.0
04/11:30am 21.5 19.4 9.6 46 6.4 SSW 11 17 6 9 1014.9 1014.9 0.0
04/11:00am 22.0 19.5 8.0 40 7.3 W 11 15 6 8 1015.1 1015.1 0.0
04/10:30am 23.6 20.2 5.9 32 9.0 WNW 13 19 7 10 1015.1 1015.1 0.0
04/10:00am 23.0 19.6 6.0 33 8.6 WNW 13 19 7 10 1015.3 1015.3 0.0
04/09:30am 21.3 17.9 7.5 41 7.1 WNW 15 24 8 13 1015.2 1015.2 0.0
04/09:00am 20.3 17.3 7.6 44 6.5 NW 13 15 7 8 1015.3 1015.3 0.0
04/08:30am 19.3 17.1 7.8 47 5.9 NW 9 13 5 7 1014.8 1014.8 -
04/08:00am 17.1 14.9 8.0 55 4.6 WNW 9 15 5 8 1014.4 1014.4 -
04/07:30am 18.7 16.1 7.7 48 5.6 WNW 11 13 6 7 1013.9 1013.9 -
04/07:00am 17.9 15.6 7.4 50 5.3 NNW 9 11 5 6 1013.4 1013.4 -
04/06:30am 17.7 13.8 7.1 50 5.3 NNW 17 19 9 10 1012.9 1012.9 -
04/06:00am 16.9 13.4 7.0 52 4.9 NNW 15 17 8 9 1012.5 1012.5 -
04/05:30am 16.6 12.8 7.4 54 4.6 NNW 17 19 9 10 1012.1 1012.1 -
04/05:00am 16.3 12.1 7.5 56 4.4 N 19 20 10 11 1011.8 1011.8 -
04/04:30am 16.7 12.8 7.3 54 4.7 N 17 19 9 10 1011.5 1011.5 -
04/04:00am 15.8 12.4 7.6 58 4.1 N 15 17 8 9 1011.4 1011.4 -
04/03:30am 16.6 13.1 7.4 54 4.6 N 15 17 8 9 1011.2 1011.2 -
04/03:00am 16.2 12.7 7.4 56 4.4 N 15 17 8 9 1011.0 1011.0 0.0
04/02:30am 16.6 13.9 7.4 54 4.6 N 11 13 6 7 1011.0 1011.0 -
04/02:00am 17.0 12.7 6.9 51 5.0 N 19 19 10 10 1011.0 1011.0 -
04/01:30am 17.4 13.1 7.0 50 5.2 N 19 22 10 12 1011.0 1011.0 -
04/01:00am 17.9 13.5 6.4 47 5.7 NNW 19 20 10 11 1011.0 1011.0 -
04/12:30am 18.3 14.6 6.1 44 6.0 NNW 15 17 8 9 1010.9 1010.9 -
04/12:00am 18.2 14.9 6.5 46 5.8 N 13 15 7 8 1010.9 1010.9 -
 
Date/Time
EST
Tmp

°C
App
Tmp
°C
Dew
Point
°C
Rel
Hum
%
Delta-T

°C
Wind Press
QNH
hPa
Press
MSL
hPa
Rain
since
9 am
mm
Dir
 
Spd
km/h
Gust
km/h
Spd
kts
Gust
kts
03/11:30pm 18.6 14.8 6.0 43 6.2 NNW 15 17 8 9 1011.0 1011.0 -
03/11:00pm 19.6 15.4 5.6 40 6.9 NNW 17 19 9 10 1010.8 1010.8 -
03/10:30pm 20.1 15.4 5.2 37 7.3 NNW 19 22 10 12 1010.5 1010.5 -
03/10:00pm 20.3 15.0 5.0 36 7.5 NW 22 28 12 15 1010.1 1010.1 -
03/09:30pm 20.7 15.3 4.4 34 7.9 NNW 22 28 12 15 1009.9 1009.9 -

Latest Capital City Observations: Canberra | Sydney | Melbourne | Brisbane | Adelaide | Perth | Hobart | Darwin

Other Formats:

Comma delimited format used in spreadsheet applications
http://www.bom.gov.au/fwo/IDN60901/IDN60901.94767.axf

JavaScript Object Notation format (JSON) in row-major order
http://www.bom.gov.au/fwo/IDN60901/IDN60901.94767.json